createdAt,value
2023-04-16T00:00:58.608Z,66.66
2023-04-16T00:04:04.510Z,67.45
2023-04-16T00:07:11.159Z,67.54
2023-04-16T00:10:19.953Z,66.02
2023-04-16T00:13:27.699Z,67.38
2023-04-16T00:16:33.591Z,66.98
2023-04-16T00:19:40.159Z,67.41
2023-04-16T00:22:45.825Z,67.84
2023-04-16T00:25:57.377Z,67.37
2023-04-16T00:29:04.436Z,66.47
2023-04-16T00:32:11.205Z,66.81
2023-04-16T00:35:16.811Z,63.90
2023-04-16T00:38:23.359Z,65.17
2023-04-16T00:41:31.557Z,65.69
2023-04-16T00:44:38.281Z,66.23
2023-04-16T00:47:44.024Z,66.04
2023-04-16T00:50:51.340Z,66.48
2023-04-16T00:53:57.421Z,66.32
2023-04-16T00:57:06.784Z,65.91
2023-04-16T01:00:14.629Z,65.48
2023-04-16T01:03:21.481Z,65.80
2023-04-16T01:06:27.203Z,65.34
2023-04-16T01:09:33.622Z,66.34
2023-04-16T01:12:41.864Z,66.48
2023-04-16T01:15:48.375Z,66.81
2023-04-16T01:18:54.017Z,67.21
2023-04-16T01:22:03.138Z,67.24
2023-04-16T01:25:09.744Z,67.61
2023-04-16T01:28:16.750Z,67.43
2023-04-16T01:31:22.470Z,67.54
2023-04-16T01:34:54.888Z,67.62
2023-04-16T01:38:03.240Z,67.35
2023-04-16T01:41:09.606Z,67.28
2023-04-16T01:44:15.320Z,66.98
2023-04-16T01:47:22.020Z,67.40
2023-04-16T01:50:27.962Z,66.96
2023-04-16T01:53:37.277Z,67.29
2023-04-16T01:56:43.813Z,66.50
2023-04-16T01:59:49.548Z,66.84
2023-04-16T02:02:57.419Z,65.06
2023-04-16T02:06:06.217Z,64.96
2023-04-16T02:09:15.237Z,64.05
2023-04-16T02:12:21.265Z,64.62
2023-04-16T02:15:27.939Z,66.33
2023-04-16T02:18:33.743Z,65.72
2023-04-16T02:21:40.162Z,66.26
2023-04-16T02:24:48.532Z,65.44
2023-04-16T02:27:55.222Z,64.31
2023-04-16T02:31:15.273Z,65.20
2023-04-16T02:34:24.346Z,66.14
2023-04-16T02:37:30.409Z,66.36
2023-04-16T02:40:39.691Z,67.00
2023-04-16T02:43:45.360Z,66.69
2023-04-16T02:46:51.745Z,66.84
2023-04-16T02:49:57.311Z,66.59
2023-04-16T02:53:04.563Z,64.92
2023-04-16T02:56:13.051Z,64.53
2023-04-16T02:59:19.469Z,63.09
2023-04-16T03:02:25.339Z,62.08
2023-04-16T03:05:32.301Z,62.93
2023-04-16T03:08:37.799Z,62.43
2023-04-16T03:11:46.833Z,63.45
2023-04-16T03:14:54.428Z,62.89
2023-04-16T03:18:01.332Z,61.81
2023-04-16T03:21:08.126Z,62.84
2023-04-16T03:24:17.012Z,62.83
2023-04-16T03:27:25.255Z,62.89
2023-04-16T03:30:32.431Z,64.14
2023-04-16T03:33:38.148Z,63.69
2023-04-16T03:36:44.917Z,64.57
2023-04-16T03:39:50.933Z,63.32
2023-04-16T03:42:59.911Z,64.45
2023-04-16T03:46:09.891Z,65.07
2023-04-16T03:49:16.957Z,65.00
2023-04-16T03:52:22.602Z,63.65
2023-04-16T03:55:29.087Z,64.51
2023-04-16T03:58:38.556Z,64.05
2023-04-16T04:01:45.178Z,64.93
2023-04-16T04:04:51.239Z,64.14
2023-04-16T04:07:57.831Z,64.48
2023-04-16T04:11:03.757Z,65.15
2023-04-16T04:14:14.195Z,65.28
2023-04-16T04:17:19.966Z,65.25
2023-04-16T04:20:26.864Z,64.32
2023-04-16T04:23:32.573Z,64.66
2023-04-16T04:26:39.087Z,65.39
2023-04-16T04:29:47.634Z,66.02
2023-04-16T04:32:54.062Z,66.83
2023-04-16T04:36:00.293Z,67.33
2023-04-16T04:39:07.727Z,66.39
2023-04-16T04:42:13.653Z,63.71
2023-04-16T04:45:25.687Z,64.40
2023-04-16T04:48:32.834Z,65.22
2023-04-16T04:51:39.589Z,65.56
2023-04-16T04:54:45.190Z,65.98
2023-04-16T04:57:52.158Z,66.18
2023-04-16T05:01:01.681Z,66.65
2023-04-16T05:04:08.624Z,67.02
2023-04-16T05:07:14.335Z,67.06
2023-04-16T05:10:20.850Z,66.71
2023-04-16T05:13:26.722Z,64.91
2023-04-16T05:16:35.981Z,64.69
2023-04-16T05:19:41.581Z,65.36
2023-04-16T05:22:47.962Z,65.61
2023-04-16T05:25:53.634Z,65.25
2023-04-16T05:29:00.185Z,65.09
2023-04-16T05:32:08.646Z,65.74
2023-04-16T05:35:17.301Z,65.29
2023-04-16T05:38:23.260Z,65.98
2023-04-16T05:41:29.730Z,65.53
2023-04-16T05:44:35.438Z,65.54
2023-04-16T05:47:44.523Z,65.30
2023-04-16T05:50:50.080Z,65.65
2023-04-16T05:53:58.973Z,65.64
2023-04-16T05:57:04.830Z,65.44
2023-04-16T06:00:12.730Z,65.87
2023-04-16T06:03:21.247Z,66.19
2023-04-16T06:06:29.703Z,66.65
2023-04-16T06:09:35.280Z,66.58
2023-04-16T06:12:41.879Z,66.65
2023-04-16T06:15:48.097Z,66.82
2023-04-16T06:18:57.078Z,66.29
2023-04-16T06:22:03.096Z,66.15
2023-04-16T06:25:11.172Z,65.51
2023-04-16T06:28:16.767Z,65.34
2023-04-16T06:31:23.386Z,64.68
2023-04-16T06:34:32.054Z,62.10
2023-04-16T06:37:38.673Z,60.76
2023-04-16T06:40:44.868Z,60.30
2023-04-16T06:43:51.445Z,59.86
2023-04-16T06:46:57.240Z,60.13
2023-04-16T06:50:06.376Z,59.86
2023-04-16T06:53:12.209Z,58.76
2023-04-16T06:56:18.765Z,57.85
2023-04-16T06:59:24.357Z,57.20
2023-04-16T07:02:31.097Z,55.46
2023-04-16T07:05:39.328Z,56.83
2023-04-16T07:08:46.109Z,57.35
2023-04-16T07:11:51.871Z,56.10
2023-04-16T07:14:58.338Z,53.59
2023-04-16T07:18:03.988Z,52.27
2023-04-16T07:21:13.089Z,50.83
2023-04-16T07:24:18.657Z,51.65
2023-04-16T07:27:25.623Z,51.09
2023-04-16T07:30:34.537Z,49.84
2023-04-16T07:33:43.531Z,49.94
2023-04-16T07:36:55.057Z,48.27
2023-04-16T07:40:03.125Z,47.63
2023-04-16T07:43:09.295Z,47.56
2023-04-16T07:46:16.422Z,46.24
2023-04-16T07:49:22.052Z,45.67
2023-04-16T07:52:32.368Z,45.53
2023-04-16T07:55:38.276Z,45.04
2023-04-16T07:58:45.356Z,46.15
2023-04-16T08:01:51.865Z,45.49
2023-04-16T08:05:03.384Z,46.62
2023-04-16T08:08:12.034Z,44.62
2023-04-16T08:11:21.808Z,43.39
2023-04-16T08:14:27.477Z,43.62
2023-04-16T08:17:34.788Z,43.97
2023-04-16T08:20:40.825Z,42.27
2023-04-16T08:23:50.241Z,39.56
2023-04-16T08:27:00.352Z,39.65
2023-04-16T08:30:12.007Z,39.95
2023-04-16T08:33:17.830Z,39.22
2023-04-16T08:36:24.400Z,38.37
2023-04-16T08:39:33.290Z,38.25
2023-04-16T08:42:48.575Z,39.12
2023-04-16T08:45:59.402Z,37.32
2023-04-16T08:49:10.158Z,35.87
2023-04-16T08:52:22.155Z,35.46
2023-04-16T08:55:40.518Z,33.27
2023-04-16T08:58:50.622Z,31.79
2023-04-16T09:02:02.131Z,31.83
2023-04-16T09:05:12.539Z,31.69
2023-04-16T09:08:21.494Z,32.01
2023-04-16T09:11:30.603Z,30.43
2023-04-16T09:14:38.480Z,27.10
2023-04-16T09:17:45.292Z,26.43
2023-04-16T09:20:53.659Z,27.50
2023-04-16T09:24:00.173Z,25.37
2023-04-16T09:27:11.422Z,25.28
2023-04-16T09:30:29.112Z,23.89
2023-04-16T09:33:35.613Z,23.94
2023-04-16T09:36:41.205Z,22.70
2023-04-16T09:39:49.022Z,22.25
2023-04-16T09:43:01.434Z,22.63
2023-04-16T09:46:08.723Z,21.23
2023-04-16T09:49:19.343Z,19.41
2023-04-16T09:52:30.412Z,19.66
2023-04-16T09:55:36.773Z,21.18
2023-04-16T09:58:46.275Z,19.80
2023-04-16T10:01:58.062Z,21.01
2023-04-16T10:05:23.177Z,22.92
2023-04-16T10:08:28.806Z,23.94
2023-04-16T10:11:35.604Z,25.23
2023-04-16T10:14:45.338Z,23.15
2023-04-16T10:17:54.074Z,22.76
2023-04-16T10:21:01.822Z,20.54
2023-04-16T10:24:10.969Z,21.62
2023-04-16T10:27:16.844Z,20.21
2023-04-16T10:30:26.787Z,20.29
2023-04-16T10:33:36.735Z,17.36
2023-04-16T10:36:43.328Z,17.18
2023-04-16T10:39:49.966Z,16.97
2023-04-16T10:43:01.739Z,17.24
2023-04-16T10:46:27.015Z,17.81
2023-04-16T10:49:33.726Z,18.67
2023-04-16T10:52:39.462Z,19.83
2023-04-16T10:56:00.918Z,21.43
2023-04-16T10:59:09.459Z,22.21
2023-04-16T11:02:24.191Z,21.10
2023-04-16T11:05:49.764Z,20.83
2023-04-16T11:08:57.259Z,22.70
2023-04-16T11:12:10.703Z,22.88
2023-04-16T11:15:19.875Z,24.39
2023-04-16T11:18:29.309Z,25.58
2023-04-16T11:21:37.276Z,26.43
2023-04-16T11:24:43.431Z,25.89
2023-04-16T11:27:49.880Z,25.10
2023-04-16T11:30:55.785Z,26.61
2023-04-16T11:34:04.998Z,28.27
2023-04-16T11:37:11.166Z,26.87
2023-04-16T11:40:18.015Z,25.88
2023-04-16T11:43:23.677Z,26.52
2023-04-16T11:46:42.768Z,27.07
2023-04-16T11:49:52.199Z,27.66
2023-04-16T11:53:07.178Z,27.32
2023-04-16T11:56:13.132Z,25.44
2023-04-16T11:59:23.262Z,26.51
2023-04-16T12:02:40.185Z,26.20
2023-04-16T12:05:49.772Z,27.06
2023-04-16T12:09:04.210Z,26.93
2023-04-16T12:12:31.575Z,28.00
2023-04-16T12:15:51.733Z,27.74
2023-04-16T12:19:06.670Z,28.63
2023-04-16T12:22:16.229Z,27.75
2023-04-16T12:25:23.359Z,26.98
2023-04-16T12:28:35.227Z,27.81
2023-04-16T12:31:43.605Z,27.37
2023-04-16T12:34:54.382Z,27.63
2023-04-16T12:38:04.374Z,27.77
2023-04-16T12:41:11.110Z,26.93
2023-04-16T12:44:21.978Z,27.08
2023-04-16T12:47:27.867Z,25.59
2023-04-16T12:50:34.714Z,26.18
2023-04-16T12:53:43.081Z,25.55
2023-04-16T12:56:49.642Z,25.32
2023-04-16T12:59:55.275Z,27.17
2023-04-16T13:03:01.899Z,27.54
2023-04-16T13:06:08.127Z,27.64
2023-04-16T13:09:18.417Z,27.03
2023-04-16T13:12:24.126Z,26.79
2023-04-16T13:15:30.701Z,26.61
2023-04-16T13:18:36.906Z,23.98
2023-04-16T13:25:05.281Z,23.46
2023-04-16T13:28:11.913Z,21.46
2023-04-16T13:31:20.790Z,21.68
2023-04-16T13:34:27.616Z,20.26
2023-04-16T13:37:33.237Z,20.49
2023-04-16T13:40:42.264Z,18.72
2023-04-16T13:43:47.887Z,19.60
2023-04-16T13:46:54.408Z,19.84
2023-04-16T13:50:00.012Z,18.58
2023-04-16T13:53:06.636Z,18.72
2023-04-16T13:56:15.540Z,18.77
2023-04-16T13:59:22.194Z,18.67
2023-04-16T14:02:28.517Z,20.32
2023-04-16T14:05:35.151Z,21.98
2023-04-16T14:08:41.075Z,21.78
2023-04-16T14:11:50.137Z,23.73
2023-04-16T14:14:57.256Z,23.67
2023-04-16T14:18:03.996Z,24.99
2023-04-16T14:21:09.737Z,25.08
2023-04-16T14:24:16.095Z,26.66
2023-04-16T14:27:27.614Z,25.97
2023-04-16T14:30:34.026Z,25.34
2023-04-16T14:33:39.892Z,26.14
2023-04-16T14:36:46.505Z,27.38
2023-04-16T14:39:54.253Z,27.80
2023-04-16T14:43:03.284Z,27.40
2023-04-16T14:46:09.284Z,27.55
2023-04-16T14:49:15.970Z,27.93
2023-04-16T14:52:21.799Z,27.64
2023-04-16T14:55:28.257Z,27.68
2023-04-16T14:58:37.842Z,28.02
2023-04-16T15:01:46.656Z,27.61
2023-04-16T15:04:52.365Z,29.64
2023-04-16T15:07:58.834Z,31.55
2023-04-16T15:11:04.507Z,31.53
2023-04-16T15:14:14.763Z,32.36
2023-04-16T15:17:20.632Z,31.67
2023-04-16T15:20:27.281Z,32.33
2023-04-16T15:23:32.883Z,32.52
2023-04-16T15:26:39.887Z,31.59
2023-04-16T15:29:49.798Z,32.38
2023-04-16T15:32:56.746Z,31.49
2023-04-16T15:36:02.663Z,31.37
2023-04-16T15:39:09.925Z,31.87
2023-04-16T15:42:16.008Z,32.48
2023-04-16T15:45:25.177Z,32.41
2023-04-16T15:48:31.061Z,31.90
2023-04-16T15:51:37.673Z,32.76
2023-04-16T15:54:43.928Z,32.58
2023-04-16T15:57:50.455Z,33.50
2023-04-16T16:00:58.765Z,33.13
2023-04-16T16:04:05.609Z,34.60
2023-04-16T16:07:11.518Z,33.22
2023-04-16T16:10:18.046Z,34.17
2023-04-16T16:13:23.690Z,34.43
2023-04-16T16:16:33.118Z,33.91
2023-04-16T16:19:38.894Z,35.75
2023-04-16T16:22:48.626Z,35.75
2023-04-16T16:25:55.696Z,36.82
2023-04-16T16:29:02.296Z,36.36
2023-04-16T16:32:11.008Z,35.67
2023-04-16T16:35:17.441Z,35.40
2023-04-16T16:38:23.159Z,35.88
2023-04-16T16:41:29.604Z,35.57
2023-04-16T16:44:35.202Z,36.02
2023-04-16T16:47:44.446Z,35.89
2023-04-16T16:50:50.247Z,35.69
2023-04-16T16:53:57.036Z,36.76
2023-04-16T16:57:02.615Z,36.57
2023-04-16T17:00:14.501Z,38.75
2023-04-16T17:03:22.893Z,39.49
2023-04-16T17:06:29.762Z,38.20
2023-04-16T17:09:38.830Z,37.44
2023-04-16T17:12:47.309Z,37.29
2023-04-16T17:15:52.892Z,38.03
2023-04-16T17:19:02.056Z,38.00
2023-04-16T17:22:07.652Z,37.95
2023-04-16T17:25:15.182Z,38.54
2023-04-16T17:28:21.103Z,38.28
2023-04-16T17:31:29.921Z,38.35
2023-04-16T17:34:38.339Z,39.39
2023-04-16T17:37:44.797Z,40.61
2023-04-16T17:40:50.584Z,39.77
2023-04-16T17:43:57.059Z,40.37
2023-04-16T17:47:02.794Z,40.92
2023-04-16T17:50:13.705Z,41.42
2023-04-16T17:53:19.321Z,41.52
2023-04-16T17:56:25.778Z,41.19
2023-04-16T17:59:31.451Z,41.66
2023-04-16T18:02:39.487Z,42.11
2023-04-16T18:05:47.813Z,42.30
2023-04-16T18:08:54.268Z,42.42
2023-04-16T18:12:03.471Z,42.35
2023-04-16T18:15:12.062Z,42.29
2023-04-16T18:18:17.664Z,42.05
2023-04-16T18:21:27.690Z,42.77
2023-04-16T18:24:35.525Z,43.16
2023-04-16T18:27:41.985Z,43.03
2023-04-16T18:30:47.580Z,42.40
2023-04-16T18:33:57.898Z,43.32
2023-04-16T18:37:07.207Z,43.83
2023-04-16T18:40:15.653Z,42.23
2023-04-16T18:43:21.382Z,43.73
2023-04-16T18:46:28.094Z,44.01
2023-04-16T18:49:33.882Z,44.74
2023-04-16T18:52:43.643Z,44.66
2023-04-16T18:55:49.264Z,44.61
2023-04-16T18:58:55.714Z,44.05
2023-04-16T19:02:01.431Z,44.72
2023-04-16T19:05:09.192Z,44.96
2023-04-16T19:08:17.354Z,45.58
2023-04-16T19:11:23.982Z,45.82
2023-04-16T19:14:29.601Z,46.20
2023-04-16T19:17:36.162Z,45.76
2023-04-16T19:20:42.353Z,46.38
2023-04-16T19:23:51.726Z,46.29
2023-04-16T19:26:57.505Z,46.19
2023-04-16T19:30:06.550Z,46.57
2023-04-16T19:33:12.246Z,46.71
2023-04-16T19:36:18.874Z,46.57
2023-04-16T19:39:29.624Z,46.54
2023-04-16T19:42:37.005Z,46.87
2023-04-16T19:45:46.827Z,47.15
2023-04-16T19:48:53.399Z,47.11
2023-04-16T19:51:59.943Z,47.61
2023-04-16T19:55:10.970Z,47.59
2023-04-16T19:58:16.967Z,47.70
2023-04-16T20:01:23.564Z,48.43
2023-04-16T20:04:29.487Z,48.38
2023-04-16T20:07:36.356Z,48.59
2023-04-16T20:10:44.758Z,48.32
2023-04-16T20:13:51.378Z,48.18
2023-04-16T20:16:57.655Z,48.28
2023-04-16T20:20:10.098Z,48.26
2023-04-16T20:23:16.005Z,48.04
2023-04-16T20:26:28.413Z,48.18
2023-04-16T20:29:34.208Z,48.50
2023-04-16T20:32:40.736Z,49.07
2023-04-16T20:35:46.410Z,49.79
2023-04-16T20:38:54.104Z,49.54
2023-04-16T20:42:04.502Z,49.72
2023-04-16T20:45:12.999Z,49.52
2023-04-16T20:48:18.615Z,49.38
2023-04-16T20:51:25.082Z,49.83
2023-04-16T20:54:31.231Z,49.81
2023-04-16T20:57:40.181Z,49.72
2023-04-16T21:00:45.897Z,49.58
2023-04-16T21:03:52.522Z,49.71
2023-04-16T21:06:58.444Z,49.79
2023-04-16T21:10:05.350Z,49.74
2023-04-16T21:13:13.904Z,49.94
2023-04-16T21:16:20.408Z,49.76
2023-04-16T21:19:27.399Z,49.46
2023-04-16T21:22:33.748Z,49.59
2023-04-16T21:25:39.259Z,49.75
2023-04-16T21:28:48.458Z,49.64
2023-04-16T21:31:54.180Z,49.64
2023-04-16T21:35:00.996Z,49.75
2023-04-16T21:38:06.813Z,49.63
2023-04-16T21:41:13.230Z,49.98
2023-04-16T21:44:21.378Z,50.37
2023-04-16T21:47:27.728Z,50.52
2023-04-16T21:50:33.366Z,51.41
2023-04-16T21:53:40.079Z,51.70
2023-04-16T21:56:46.434Z,52.17
2023-04-16T21:59:55.368Z,52.24
2023-04-16T22:03:01.189Z,52.20
2023-04-16T22:06:08.763Z,52.07
2023-04-16T22:09:14.321Z,52.01
2023-04-16T22:12:20.756Z,52.41
2023-04-16T22:15:29.236Z,52.87
2023-04-16T22:18:35.761Z,53.54
2023-04-16T22:21:41.586Z,53.47
2023-04-16T22:24:48.003Z,53.78
2023-04-16T22:27:53.899Z,54.00
2023-04-16T22:31:03.276Z,53.82
2023-04-16T22:34:12.218Z,53.84
2023-04-16T22:37:18.898Z,54.26
2023-04-16T22:40:24.532Z,54.28
2023-04-16T22:43:30.965Z,54.43
2023-04-16T22:46:39.178Z,54.28
2023-04-16T22:49:45.614Z,54.45
2023-04-16T22:52:51.405Z,54.66
2023-04-16T22:55:57.969Z,54.62
2023-04-16T22:59:03.587Z,54.37
2023-04-16T23:02:12.757Z,54.73
2023-04-16T23:05:18.450Z,54.96
2023-04-16T23:08:27.175Z,55.18
2023-04-16T23:11:32.709Z,55.07
2023-04-16T23:14:39.882Z,55.17
2023-04-16T23:17:48.705Z,55.81
2023-04-16T23:20:56.979Z,55.39
2023-04-16T23:24:03.625Z,55.79
2023-04-16T23:27:10.087Z,55.30
2023-04-16T23:30:16.765Z,55.13
2023-04-16T23:33:25.839Z,55.04
2023-04-16T23:36:31.690Z,55.22
2023-04-16T23:39:38.083Z,55.73
2023-04-16T23:42:43.741Z,55.50
2023-04-16T23:45:50.181Z,55.79
2023-04-16T23:48:58.414Z,55.59
2023-04-16T23:52:05.807Z,55.73
2023-04-16T23:55:12.232Z,55.57
2023-04-16T23:58:18.814Z,55.12
